createdAt,value
2023-05-25T00:00:14.210Z,20.40
2023-05-25T00:02:44.590Z,19.90
2023-05-25T00:05:11.424Z,21.50
2023-05-25T00:07:38.819Z,21.20
2023-05-25T00:10:07.059Z,19.90
2023-05-25T00:12:34.348Z,20.30
2023-05-25T00:15:01.176Z,20.80
2023-05-25T00:17:30.086Z,20.80
2023-05-25T00:19:58.225Z,23.70
2023-05-25T00:22:29.212Z,22.30
2023-05-25T00:24:56.078Z,22.10
2023-05-25T00:27:23.144Z,20.50
2023-05-25T00:29:49.708Z,22.80
2023-05-25T00:32:16.456Z,21.80
2023-05-25T00:34:43.103Z,22.90
2023-05-25T00:37:10.734Z,22.00
2023-05-25T00:39:37.318Z,22.60
2023-05-25T00:42:05.117Z,23.90
2023-05-25T00:44:32.290Z,23.40
2023-05-25T00:46:59.961Z,23.60
2023-05-25T00:49:27.464Z,24.70
2023-05-25T00:51:54.372Z,24.00
2023-05-25T00:54:21.934Z,23.10
2023-05-25T00:56:57.247Z,24.10
2023-05-25T00:59:30.939Z,23.90
2023-05-25T01:01:59.404Z,25.00
2023-05-25T01:04:28.402Z,24.70
2023-05-25T01:06:57.939Z,24.40
2023-05-25T01:09:28.566Z,24.00
2023-05-25T01:11:56.699Z,24.50
2023-05-25T01:14:24.954Z,25.20
2023-05-25T01:16:52.257Z,25.70
2023-05-25T01:19:18.979Z,24.70
2023-05-25T01:22:03.804Z,24.10
2023-05-25T01:24:53.640Z,24.80
2023-05-25T01:27:33.411Z,25.30
2023-05-25T01:32:28.896Z,25.80
2023-05-25T01:34:58.024Z,26.00
2023-05-25T01:37:26.482Z,26.00
2023-05-25T01:39:53.121Z,24.70
2023-05-25T01:42:19.756Z,24.70
2023-05-25T01:44:46.544Z,25.40
2023-05-25T01:47:26.138Z,25.10
2023-05-25T01:50:21.534Z,26.50
2023-05-25T01:52:57.275Z,26.60
2023-05-25T01:55:28.992Z,27.20
2023-05-25T01:57:58.614Z,26.60
2023-05-25T02:00:31.443Z,27.20
2023-05-25T02:02:58.467Z,28.90
2023-05-25T02:05:27.923Z,27.00
2023-05-25T02:07:54.882Z,27.10
2023-05-25T02:10:21.631Z,27.90
2023-05-25T02:12:49.054Z,27.50
2023-05-25T02:17:57.802Z,27.90
2023-05-25T02:20:24.975Z,30.20
2023-05-25T02:22:51.803Z,28.90
2023-05-25T02:25:18.360Z,29.00
2023-05-25T02:27:45.336Z,29.50
2023-05-25T02:30:12.143Z,27.70
2023-05-25T02:32:38.781Z,28.90
2023-05-25T02:35:06.470Z,28.70
2023-05-25T02:37:33.592Z,29.60
2023-05-25T02:40:00.246Z,28.00
2023-05-25T02:42:26.902Z,29.40
2023-05-25T02:44:53.486Z,29.20
2023-05-25T02:47:20.295Z,28.20
2023-05-25T02:49:47.069Z,30.30
2023-05-25T02:52:13.702Z,31.80
2023-05-25T02:54:40.432Z,30.40
2023-05-25T02:57:08.477Z,30.60
2023-05-25T02:59:35.293Z,31.20
2023-05-25T03:02:02.760Z,30.80
2023-05-25T03:04:31.254Z,32.10
2023-05-25T03:06:58.550Z,31.80
2023-05-25T03:09:26.380Z,32.50
2023-05-25T03:11:53.065Z,31.20
2023-05-25T03:14:20.546Z,34.50
2023-05-25T03:16:56.423Z,33.80
2023-05-25T03:19:23.378Z,35.10
2023-05-25T03:21:50.390Z,35.90
2023-05-25T03:24:18.338Z,34.40
2023-05-25T03:26:45.077Z,35.00
2023-05-25T03:29:11.773Z,33.70
2023-05-25T03:31:38.442Z,36.00
2023-05-25T03:34:06.429Z,34.50
2023-05-25T03:36:34.271Z,32.90
2023-05-25T03:39:01.232Z,34.10
2023-05-25T03:41:28.269Z,32.40
2023-05-25T03:43:55.326Z,32.70
2023-05-25T03:46:22.101Z,28.80
2023-05-25T03:48:48.779Z,30.40
2023-05-25T03:51:16.487Z,28.10
2023-05-25T03:53:43.175Z,27.20
2023-05-25T03:56:09.864Z,31.30
2023-05-25T03:58:37.357Z,34.60
2023-05-25T04:01:05.225Z,32.30
2023-05-25T04:03:33.219Z,30.30
2023-05-25T04:06:00.851Z,29.70
2023-05-25T04:08:29.080Z,30.80
2023-05-25T04:10:56.492Z,34.30
2023-05-25T04:13:23.182Z,35.50
2023-05-25T04:15:51.325Z,34.20
